Time;durP1;ratioP1;P1;durP2;ratioP2;P2;SDS_P1;SDS_P2;PMS_P1;PMS_P2;Temp;Humidity;BMP_temperature;BMP_pressure;BME280_temperature;BME280_humidity;BME280_pressure;Samples;Min_cycle;Max_cycle;Signal;HPM_P1;HPM_P2
2023/06/06 00:01:49;;;;;;;7.47;4.20;;;18.20;99.90;;;;;;4904726;29;20368;-75
2023/06/06 00:04:15;;;;;;;10.30;4.78;;;18.30;99.90;;;;;;4896580;29;20051;-74
2023/06/06 00:06:44;;;;;;;10.23;4.05;;;18.30;99.90;;;;;;4901069;29;20035;-75
2023/06/06 00:09:10;;;;;;;11.07;4.22;;;18.30;99.90;;;;;;4899910;29;20068;-75
2023/06/06 00:11:39;;;;;;;10.23;4.45;;;18.30;99.90;;;;;;4904123;29;20039;-75
2023/06/06 00:14:09;;;;;;;8.95;4.85;;;18.30;99.90;;;;;;4899633;29;20057;-75
2023/06/06 00:16:35;;;;;;;7.78;4.00;;;18.20;99.90;;;;;;4897306;29;20135;-75
2023/06/06 00:19:03;;;;;;;8.65;4.57;;;18.30;99.90;;;;;;4895468;29;20080;-75
2023/06/06 00:21:32;;;;;;;6.95;3.70;;;18.30;99.90;;;;;;4896238;29;20092;-75
2023/06/06 00:24:00;;;;;;;10.60;4.35;;;18.40;99.90;;;;;;4896242;29;20023;-74
2023/06/06 00:26:26;;;;;;;8.93;4.18;;;18.40;99.90;;;;;;4896102;29;20038;-75
2023/06/06 00:28:53;;;;;;;7.97;4.18;;;18.40;99.90;;;;;;4895865;29;20076;-76
2023/06/06 00:31:19;;;;;;;7.75;4.45;;;18.50;99.90;;;;;;4899838;29;20063;-74
2023/06/06 00:33:45;;;;;;;9.30;4.68;;;18.60;99.90;;;;;;4879665;29;20397;-75
2023/06/06 00:36:11;;;;;;;8.23;4.22;;;18.60;99.90;;;;;;4896249;29;20437;-75
2023/06/06 00:38:37;;;;;;;6.95;3.88;;;18.60;99.90;;;;;;4895883;29;20023;-76
2023/06/06 00:41:03;;;;;;;7.40;4.13;;;18.50;99.90;;;;;;4904853;29;20107;-75
2023/06/06 00:43:28;;;;;;;16.90;5.50;;;18.60;99.90;;;;;;4878334;29;20120;-75
2023/06/06 00:45:55;;;;;;;10.00;5.18;;;18.70;99.90;;;;;;4901113;29;20373;-74
2023/06/06 00:48:23;;;;;;;9.75;4.90;;;18.60;99.90;;;;;;4894824;29;20024;-75
2023/06/06 00:50:50;;;;;;;11.15;5.38;;;18.50;99.90;;;;;;4899256;29;20037;-75
2023/06/06 00:53:17;;;;;;;10.68;6.13;;;18.50;99.90;;;;;;4895504;29;20505;-75
2023/06/06 00:55:43;;;;;;;9.98;5.50;;;18.40;99.90;;;;;;4878762;29;20127;-74
2023/06/06 00:58:12;;;;;;;9.90;5.25;;;18.40;99.90;;;;;;4895493;29;20081;-75
2023/06/06 01:00:39;;;;;;;11.82;5.57;;;18.10;99.90;;;;;;4882618;29;20028;-75
2023/06/06 01:03:09;;;;;;;12.70;6.00;;;18.10;99.90;;;;;;4894888;29;20032;-74
2023/06/06 01:05:39;;;;;;;10.73;6.28;;;18.10;99.90;;;;;;4898531;29;20043;-74
2023/06/06 01:08:06;;;;;;;12.48;6.20;;;18.00;99.90;;;;;;4884048;29;20119;-75
2023/06/06 01:10:35;;;;;;;13.98;6.55;;;18.10;99.90;;;;;;4880894;29;20095;-74
2023/06/06 01:13:20;;;;;;;12.88;6.80;;;18.10;99.90;;;;;;4878818;29;20088;-74
2023/06/06 01:15:59;;;;;;;14.95;6.93;;;18.10;99.90;;;;;;4878565;29;20140;-75
2023/06/06 01:18:26;;;;;;;13.43;6.55;;;18.10;99.90;;;;;;4899033;29;20025;-74
2023/06/06 01:20:52;;;;;;;11.95;7.20;;;18.20;99.90;;;;;;4895544;29;20041;-75
2023/06/06 01:23:19;;;;;;;14.93;7.00;;;18.10;99.90;;;;;;4878760;29;20028;-75
2023/06/06 01:25:49;;;;;;;14.10;7.18;;;18.20;99.90;;;;;;4895334;29;20028;-75
2023/06/06 01:28:16;;;;;;;12.93;6.53;;;18.20;99.90;;;;;;4895101;29;20024;-75
2023/06/06 01:30:44;;;;;;;12.27;7.05;;;18.20;99.90;;;;;;4895470;29;20036;-75
2023/06/06 01:33:17;;;;;;;12.60;7.50;;;18.20;99.90;;;;;;4878812;29;20419;-75
2023/06/06 01:35:58;;;;;;;12.68;7.72;;;18.30;99.90;;;;;;4878818;29;20496;-74
2023/06/06 01:38:26;;;;;;;15.82;8.65;;;18.20;99.90;;;;;;4899364;29;20107;-74
2023/06/06 01:40:57;;;;;;;14.38;7.57;;;18.30;99.90;;;;;;4900311;29;20747;-75
2023/06/06 01:43:26;;;;;;;17.05;9.32;;;18.30;99.90;;;;;;4884994;29;20064;-74
2023/06/06 01:45:54;;;;;;;17.83;9.00;;;18.30;99.90;;;;;;4878974;29;20037;-74
2023/06/06 01:48:20;;;;;;;15.68;8.65;;;18.30;99.90;;;;;;4878289;29;20385;-75
2023/06/06 01:50:47;;;;;;;15.68;8.35;;;18.40;99.90;;;;;;4878309;29;20193;-75
2023/06/06 01:53:13;;;;;;;13.68;8.05;;;18.40;99.90;;;;;;4890050;29;20033;-75
2023/06/06 01:55:39;;;;;;;15.75;7.55;;;18.50;99.90;;;;;;4878289;29;20417;-75
2023/06/06 01:58:05;;;;;;;16.00;8.82;;;18.50;99.90;;;;;;4894891;29;20476;-75
2023/06/06 02:00:31;;;;;;;14.93;7.90;;;18.50;99.90;;;;;;4895394;29;20021;-75
2023/06/06 02:02:57;;;;;;;15.43;7.82;;;18.60;99.90;;;;;;4894918;29;20039;-75
2023/06/06 02:05:23;;;;;;;16.67;8.15;;;18.60;99.90;;;;;;4893324;29;20120;-75
2023/06/06 02:07:52;;;;;;;14.77;9.35;;;18.70;99.90;;;;;;4877961;29;20088;-75
2023/06/06 02:10:18;;;;;;;16.75;9.68;;;18.70;99.90;;;;;;4877859;29;20036;-75
2023/06/06 02:12:44;;;;;;;14.80;9.00;;;18.70;99.90;;;;;;4880986;29;20493;-75
2023/06/06 02:15:11;;;;;;;16.88;8.18;;;18.80;99.90;;;;;;4898736;29;20035;-75
2023/06/06 02:17:36;;;;;;;16.70;9.48;;;18.80;99.90;;;;;;4896908;29;20457;-75
2023/06/06 02:20:06;;;;;;;15.02;8.73;;;18.80;99.90;;;;;;4902176;29;20101;-75
2023/06/06 02:22:32;;;;;;;17.30;9.15;;;18.80;99.90;;;;;;4898445;29;20025;-74
2023/06/06 02:24:59;;;;;;;18.83;9.90;;;18.70;99.90;;;;;;4898209;29;20529;-75
2023/06/06 02:27:26;;;;;;;18.60;11.05;;;18.80;99.90;;;;;;4898320;29;20111;-75
2023/06/06 02:29:51;;;;;;;19.85;10.30;;;18.70;99.90;;;;;;4881376;29;20076;-75
2023/06/06 02:32:17;;;;;;;20.40;12.15;;;18.70;99.90;;;;;;4881191;29;20032;-75
2023/06/06 02:34:45;;;;;;;19.45;10.88;;;18.80;99.90;;;;;;4885086;29;20131;-74
2023/06/06 02:37:11;;;;;;;23.65;12.70;;;18.80;99.90;;;;;;4881146;29;20084;-74
2023/06/06 02:39:38;;;;;;;23.63;14.43;;;18.80;99.90;;;;;;4881052;29;20107;-75
2023/06/06 02:42:05;;;;;;;23.08;14.52;;;18.80;99.90;;;;;;4902186;29;20104;-74
2023/06/06 02:44:31;;;;;;;22.15;11.95;;;18.80;99.90;;;;;;4899321;29;20036;-74
2023/06/06 02:46:57;;;;;;;20.63;11.70;;;18.80;99.90;;;;;;4905112;29;20047;-75
2023/06/06 02:49:23;;;;;;;23.88;13.30;;;18.80;99.90;;;;;;4886983;29;20060;-75
2023/06/06 02:51:49;;;;;;;20.45;10.38;;;18.80;99.90;;;;;;4901484;29;20061;-75
2023/06/06 02:54:15;;;;;;;21.08;10.00;;;18.80;99.90;;;;;;4901520;29;20028;-75
2023/06/06 02:56:41;;;;;;;13.48;7.75;;;18.80;99.90;;;;;;4880865;29;20099;-76
2023/06/06 02:59:07;;;;;;;15.02;8.98;;;18.80;99.90;;;;;;4884265;29;20038;-74
2023/06/06 03:01:35;;;;;;;12.60;7.70;;;18.80;99.90;;;;;;4880915;29;20024;-75
2023/06/06 03:04:01;;;;;;;12.38;6.75;;;18.80;99.90;;;;;;4892493;29;20033;-75
2023/06/06 03:06:28;;;;;;;12.75;6.57;;;18.80;99.90;;;;;;4880726;29;20028;-74
2023/06/06 03:08:57;;;;;;;13.23;7.40;;;18.80;99.90;;;;;;4900128;29;20449;-75
2023/06/06 03:11:25;;;;;;;13.05;7.13;;;18.80;99.90;;;;;;4896842;29;20029;-74
2023/06/06 03:13:52;;;;;;;16.90;7.15;;;18.80;99.90;;;;;;4880025;29;20029;-74
2023/06/06 03:16:18;;;;;;;11.90;6.63;;;18.70;99.90;;;;;;4896124;29;20033;-74
2023/06/06 03:18:46;;;;;;;12.20;6.78;;;18.70;99.90;;;;;;4883594;29;20108;-74
2023/06/06 03:21:14;;;;;;;15.15;7.95;;;18.60;99.90;;;;;;4880194;29;20063;-75
2023/06/06 03:23:43;;;;;;;14.30;6.35;;;18.50;99.90;;;;;;4880596;29;20037;-74
2023/06/06 03:26:09;;;;;;;13.20;6.53;;;18.50;99.90;;;;;;4879810;29;20039;-75
2023/06/06 03:28:35;;;;;;;11.68;6.72;;;18.60;99.90;;;;;;4879902;29;20128;-74
2023/06/06 03:31:06;;;;;;;14.52;6.32;;;18.60;99.90;;;;;;4879846;29;20123;-75
2023/06/06 03:33:38;;;;;;;21.27;7.40;;;18.60;99.90;;;;;;4895859;29;20063;-75
2023/06/06 03:36:06;;;;;;;11.60;6.38;;;18.60;99.90;;;;;;4886508;29;20071;-73
2023/06/06 03:38:32;;;;;;;12.80;6.43;;;18.60;99.90;;;;;;4895443;29;20025;-75
2023/06/06 03:40:58;;;;;;;12.48;5.88;;;18.50;99.90;;;;;;4880216;29;20110;-74
2023/06/06 03:43:24;;;;;;;13.52;7.25;;;18.60;99.90;;;;;;4883852;29;20017;-73
2023/06/06 03:45:50;;;;;;;12.38;6.82;;;18.60;99.90;;;;;;4882903;29;20122;-74
2023/06/06 03:48:18;;;;;;;15.38;8.48;;;18.60;99.90;;;;;;4884239;29;20021;-74
2023/06/06 03:50:44;;;;;;;21.42;9.35;;;18.60;99.90;;;;;;4880071;29;20462;-75
2023/06/06 03:53:09;;;;;;;14.55;8.90;;;18.60;99.90;;;;;;4883443;29;20033;-75
2023/06/06 03:55:38;;;;;;;15.82;8.90;;;18.60;99.90;;;;;;4900584;29;20037;-75
2023/06/06 03:58:03;;;;;;;16.50;9.25;;;18.70;99.90;;;;;;4896562;29;20072;-75
2023/06/06 04:00:31;;;;;;;20.00;11.35;;;18.70;99.90;;;;;;4879271;29;20515;-74
2023/06/06 04:02:57;;;;;;;19.30;11.40;;;18.70;99.90;;;;;;4879515;29;20040;-74
2023/06/06 04:05:23;;;;;;;17.90;10.02;;;18.70;99.90;;;;;;4897950;29;20076;-73
2023/06/06 04:07:49;;;;;;;17.55;9.90;;;18.70;99.90;;;;;;4911679;29;20046;-74
2023/06/06 04:10:15;;;;;;;19.30;9.20;;;18.70;99.90;;;;;;4907867;29;20134;-74
2023/06/06 04:12:41;;;;;;;17.77;10.00;;;18.70;99.90;;;;;;4916363;29;20528;-74
2023/06/06 04:15:10;;;;;;;18.52;9.75;;;18.60;99.90;;;;;;4916055;29;20098;-74
2023/06/06 04:17:36;;;;;;;21.65;9.55;;;18.60;99.90;;;;;;4913183;29;20027;-76
2023/06/06 04:20:05;;;;;;;18.38;8.68;;;18.50;99.90;;;;;;4903532;29;20029;-75
2023/06/06 04:22:31;;;;;;;16.83;8.70;;;18.50;99.90;;;;;;4892482;29;20028;-74
2023/06/06 04:24:57;;;;;;;17.15;9.57;;;18.30;99.90;;;;;;4899341;29;20036;-74
2023/06/06 04:27:23;;;;;;;22.10;10.73;;;18.20;99.90;;;;;;4905491;29;20047;-74
2023/06/06 04:29:51;;;;;;;16.63;8.93;;;18.20;99.90;;;;;;4899280;29;20495;-74
2023/06/06 04:32:19;;;;;;;22.52;9.40;;;18.20;99.90;;;;;;4898981;29;20032;-76
2023/06/06 04:34:46;;;;;;;22.80;13.48;;;18.30;99.90;;;;;;4908695;29;20503;-76
2023/06/06 04:37:17;;;;;;;41.53;27.58;;;18.30;99.90;;;;;;4904355;29;20031;-77
2023/06/06 04:39:52;;;;;;;40.83;25.67;;;18.10;99.90;;;;;;4898901;29;20070;-76
2023/06/06 04:42:21;;;;;;;35.42;22.88;;;18.10;99.90;;;;;;4899449;29;20429;-76
2023/06/06 04:44:46;;;;;;;33.42;20.35;;;18.30;99.90;;;;;;4898893;29;20040;-76
2023/06/06 04:47:14;;;;;;;25.00;15.52;;;18.20;99.90;;;;;;4898928;29;20040;-76
2023/06/06 04:49:40;;;;;;;25.25;12.88;;;18.10;99.90;;;;;;4915806;29;20129;-77
2023/06/06 04:52:08;;;;;;;18.88;10.95;;;18.20;99.90;;;;;;4899457;29;20036;-77
2023/06/06 04:54:37;;;;;;;18.98;11.18;;;18.20;99.90;;;;;;4899300;29;20027;-77
2023/06/06 04:57:06;;;;;;;18.60;11.25;;;18.20;99.90;;;;;;4916220;29;20035;-77
2023/06/06 04:59:33;;;;;;;16.75;9.82;;;18.30;99.90;;;;;;4916032;29;20032;-76
2023/06/06 05:02:01;;;;;;;29.80;20.60;;;18.40;99.90;;;;;;4915814;29;20149;-75
2023/06/06 05:04:29;;;;;;;76.70;60.42;;;18.40;99.90;;;;;;4916166;29;20035;-76
2023/06/06 05:06:56;;;;;;;44.00;31.48;;;18.50;99.90;;;;;;4915824;29;20036;-76
2023/06/06 05:09:22;;;;;;;34.08;21.88;;;18.50;99.90;;;;;;4921034;29;20127;-76
2023/06/06 05:11:51;;;;;;;22.52;13.02;;;18.60;99.90;;;;;;4916836;29;20055;-75
2023/06/06 05:14:18;;;;;;;20.50;11.02;;;18.70;99.90;;;;;;4907503;29;20103;-75
2023/06/06 05:16:47;;;;;;;16.83;10.20;;;18.80;99.90;;;;;;4915946;29;20075;-74
2023/06/06 05:19:15;;;;;;;18.15;9.85;;;18.80;99.90;;;;;;4915673;29;20134;-75
2023/06/06 05:21:40;;;;;;;18.92;10.18;;;18.90;99.90;;;;;;4915714;29;20111;-76
2023/06/06 05:24:06;;;;;;;18.67;10.88;;;18.90;99.90;;;;;;4914265;29;20108;-76
2023/06/06 05:26:32;;;;;;;19.90;10.75;;;18.90;99.90;;;;;;4915474;29;20043;-76
2023/06/06 05:28:58;;;;;;;19.65;10.13;;;18.80;99.90;;;;;;4915319;29;20032;-74
2023/06/06 05:31:25;;;;;;;20.20;10.52;;;18.90;99.90;;;;;;4915522;29;20032;-74
2023/06/06 05:33:51;;;;;;;15.10;9.65;;;18.80;99.90;;;;;;4915217;29;20017;-74
2023/06/06 05:36:17;;;;;;;16.48;9.38;;;18.80;99.90;;;;;;4915591;29;20040;-74
2023/06/06 05:38:43;;;;;;;18.13;9.32;;;18.90;99.90;;;;;;4904853;29;20039;-77
2023/06/06 05:41:09;;;;;;;22.33;14.05;;;18.90;99.90;;;;;;4915073;29;20102;-74
2023/06/06 05:43:35;;;;;;;39.25;28.83;;;18.80;99.90;;;;;;4915100;29;20031;-74
2023/06/06 05:46:02;;;;;;;33.42;23.45;;;19.00;99.90;;;;;;4914937;29;20556;-74
2023/06/06 05:48:28;;;;;;;26.63;15.40;;;19.10;99.90;;;;;;4914802;29;20021;-75
2023/06/06 05:50:54;;;;;;;19.33;12.05;;;19.00;99.90;;;;;;4915047;29;20048;-74
2023/06/06 05:53:22;;;;;;;17.15;10.05;;;19.10;99.90;;;;;;4917939;29;20536;-75
2023/06/06 05:55:48;;;;;;;17.42;11.18;;;19.20;99.90;;;;;;4918763;29;20105;-75
2023/06/06 05:58:13;;;;;;;18.45;11.23;;;19.30;99.90;;;;;;4918646;29;20052;-75
2023/06/06 06:00:39;;;;;;;19.48;11.68;;;19.30;99.90;;;;;;4923755;29;20467;-75
2023/06/06 06:03:07;;;;;;;17.75;10.55;;;19.40;99.90;;;;;;4924471;29;20017;-75
2023/06/06 06:05:33;;;;;;;17.10;10.98;;;19.60;99.90;;;;;;4918628;29;20052;-75
2023/06/06 06:08:01;;;;;;;19.08;10.50;;;19.90;99.90;;;;;;4918473;29;20044;-75
2023/06/06 06:10:28;;;;;;;15.57;9.75;;;20.00;99.90;;;;;;4917710;29;20034;-75
2023/06/06 06:12:55;;;;;;;23.10;11.88;;;20.10;99.90;;;;;;4914151;29;20032;-75
2023/06/06 06:15:21;;;;;;;16.63;9.88;;;20.30;99.90;;;;;;4918306;29;20064;-75
2023/06/06 06:17:47;;;;;;;23.85;13.10;;;20.40;99.90;;;;;;4917717;29;20028;-75
2023/06/06 06:20:15;;;;;;;28.13;19.95;;;20.60;99.90;;;;;;4917937;29;20362;-76
2023/06/06 06:22:42;;;;;;;28.63;18.85;;;20.50;99.90;;;;;;4922186;29;20090;-76
2023/06/06 06:25:08;;;;;;;24.98;16.17;;;20.60;99.90;;;;;;4918787;29;20116;-74
2023/06/06 06:27:37;;;;;;;22.63;14.70;;;20.60;99.90;;;;;;4928728;29;20052;-75
2023/06/06 06:30:04;;;;;;;20.08;12.40;;;20.70;99.90;;;;;;4918342;29;20036;-75
2023/06/06 06:32:33;;;;;;;19.98;11.38;;;20.70;99.90;;;;;;4917774;29;20640;-75
2023/06/06 06:35:00;;;;;;;21.25;10.10;;;20.80;99.90;;;;;;4917869;29;20032;-76
2023/06/06 06:37:26;;;;;;;18.13;9.50;;;20.90;99.90;;;;;;4900713;29;20061;-75
2023/06/06 06:39:52;;;;;;;19.67;9.57;;;21.10;99.90;;;;;;4908429;29;20473;-76
2023/06/06 06:42:18;;;;;;;14.77;8.80;;;21.20;99.90;;;;;;4917488;29;20020;-76
2023/06/06 06:44:57;;;;;;;15.43;7.95;;;21.20;99.90;;;;;;4896368;29;20032;-76
2023/06/06 06:47:23;;;;;;;13.82;8.85;;;21.40;99.90;;;;;;4918060;29;20028;-76
2023/06/06 06:49:49;;;;;;;14.25;8.10;;;21.40;99.90;;;;;;4914293;29;20036;-76
2023/06/06 06:52:17;;;;;;;13.80;6.72;;;21.50;99.90;;;;;;4924767;29;20559;-75
2023/06/06 06:54:57;;;;;;;10.27;6.20;;;21.60;99.90;;;;;;4913534;29;20063;-75
2023/06/06 06:57:26;;;;;;;12.95;6.68;;;21.80;99.90;;;;;;4899113;29;20107;-76
2023/06/06 06:59:53;;;;;;;13.20;6.50;;;21.90;99.90;;;;;;4911741;29;20036;-76
2023/06/06 07:02:19;;;;;;;10.13;5.85;;;22.00;99.90;;;;;;4894877;29;20059;-75
2023/06/06 07:04:48;;;;;;;11.15;6.80;;;21.90;99.90;;;;;;4909479;29;20441;-75
2023/06/06 07:07:15;;;;;;;11.95;6.50;;;21.70;99.90;;;;;;4898212;29;20036;-75
2023/06/06 07:09:43;;;;;;;11.48;6.97;;;21.10;99.90;;;;;;4908310;29;20115;-75
2023/06/06 07:12:12;;;;;;;13.25;7.18;;;20.90;99.90;;;;;;4916602;29;20036;-76
2023/06/06 07:14:41;;;;;;;8.25;5.70;;;21.10;99.90;;;;;;4917225;29;20028;-75
2023/06/06 07:17:08;;;;;;;19.45;9.73;;;21.30;99.90;;;;;;4917468;29;20487;-77
2023/06/06 07:19:35;;;;;;;21.08;12.60;;;21.10;99.90;;;;;;4917727;29;20030;-75
2023/06/06 07:22:04;;;;;;;27.90;19.58;;;20.90;99.90;;;;;;4917489;29;20036;-75
2023/06/06 07:24:31;;;;;;;28.40;20.02;;;21.00;99.90;;;;;;4917700;29;20076;-74
2023/06/06 07:26:57;;;;;;;22.52;14.27;;;20.80;99.90;;;;;;4904841;29;20123;-75
2023/06/06 07:29:24;;;;;;;23.40;13.60;;;21.00;99.90;;;;;;4917472;29;20448;-75
2023/06/06 07:31:51;;;;;;;14.35;8.85;;;21.20;99.90;;;;;;4917169;29;20035;-74
2023/06/06 07:34:16;;;;;;;15.35;8.95;;;21.30;99.90;;;;;;4917100;29;20032;-75
2023/06/06 07:36:42;;;;;;;17.23;8.68;;;21.50;99.90;;;;;;4917050;29;20092;-74
2023/06/06 07:39:08;;;;;;;18.98;12.55;;;21.50;99.90;;;;;;4917307;29;20067;-75
2023/06/06 07:41:34;;;;;;;22.63;14.00;;;21.30;99.90;;;;;;4917065;29;20036;-74
2023/06/06 07:44:00;;;;;;;20.95;11.85;;;21.40;99.90;;;;;;4917104;29;20016;-75
2023/06/06 07:46:26;;;;;;;15.00;9.05;;;21.50;99.90;;;;;;4917032;29;20488;-76
2023/06/06 07:48:52;;;;;;;16.70;9.52;;;21.60;99.90;;;;;;4916887;29;20047;-75
2023/06/06 07:51:18;;;;;;;20.35;12.50;;;21.70;99.90;;;;;;4917193;29;20126;-74
2023/06/06 07:53:44;;;;;;;19.23;12.48;;;21.80;99.90;;;;;;4916629;29;20024;-74
2023/06/06 07:56:14;;;;;;;19.20;13.57;;;21.70;99.90;;;;;;4899889;29;20092;-78
2023/06/06 07:58:41;;;;;;;20.23;13.20;;;21.80;99.90;;;;;;4916663;29;20082;-75
2023/06/06 08:01:11;;;;;;;15.63;10.52;;;21.40;99.90;;;;;;4916722;29;20440;-74
2023/06/06 08:03:37;;;;;;;20.52;8.48;;;21.50;99.90;;;;;;4916536;29;20039;-76
2023/06/06 08:06:03;;;;;;;13.10;7.53;;;21.40;99.90;;;;;;4916655;29;20057;-77
2023/06/06 08:08:29;;;;;;;14.25;7.93;;;21.10;99.90;;;;;;4916591;29;20077;-75
2023/06/06 08:10:55;;;;;;;16.08;7.93;;;21.30;99.90;;;;;;4916505;29;20028;-76
2023/06/06 08:13:21;;;;;;;16.10;8.20;;;21.30;99.90;;;;;;4916579;29;20027;-75
2023/06/06 08:15:47;;;;;;;13.18;8.85;;;21.50;99.90;;;;;;4898783;29;20476;-74
2023/06/06 08:18:13;;;;;;;14.55;9.00;;;21.50;99.90;;;;;;4916481;29;20076;-74
2023/06/06 08:20:40;;;;;;;16.30;9.85;;;21.60;99.90;;;;;;4916355;29;20035;-75
2023/06/06 08:23:06;;;;;;;14.45;9.32;;;21.70;99.90;;;;;;4916407;29;20027;-77
2023/06/06 08:25:33;;;;;;;13.30;8.18;;;21.80;99.90;;;;;;4916330;29;20388;-75
2023/06/06 08:27:59;;;;;;;12.70;8.77;;;21.80;99.90;;;;;;4916415;29;20476;-76
2023/06/06 08:30:25;;;;;;;13.35;9.32;;;22.00;99.90;;;;;;4916205;29;20059;-76
2023/06/06 08:32:51;;;;;;;14.60;8.50;;;22.10;99.90;;;;;;4898858;29;20067;-75
2023/06/06 08:35:19;;;;;;;13.35;7.65;;;22.20;99.90;;;;;;4916499;29;20067;-75
2023/06/06 08:37:47;;;;;;;10.95;7.40;;;22.00;99.90;;;;;;4916144;29;20039;-79
2023/06/06 08:40:13;;;;;;;12.45;7.32;;;22.10;99.90;;;;;;4916335;29;20043;-75
2023/06/06 08:42:51;;;;;;;11.20;7.25;;;22.10;99.90;;;;;;4915795;29;20468;-77
2023/06/06 08:45:20;;;;;;;11.00;7.07;;;22.20;99.90;;;;;;4916105;29;20118;-76
2023/06/06 08:47:48;;;;;;;11.65;7.20;;;22.30;99.90;;;;;;4915675;29;20468;-76
2023/06/06 08:50:15;;;;;;;15.80;7.95;;;22.20;99.90;;;;;;4915950;29;20028;-75
2023/06/06 08:52:42;;;;;;;12.85;6.88;;;22.40;99.90;;;;;;4916183;29;20074;-77
2023/06/06 08:55:09;;;;;;;20.27;7.97;;;22.50;99.90;;;;;;4915680;29;20502;-77
2023/06/06 08:57:41;;;;;;;14.63;7.70;;;22.60;99.90;;;;;;4916198;29;20024;-75
2023/06/06 09:00:18;;;;;;;11.63;6.45;;;22.80;99.90;;;;;;4915859;29;20460;-74
2023/06/06 09:02:53;;;;;;;10.27;5.72;;;23.00;99.90;;;;;;4915942;29;20365;-76
2023/06/06 09:05:20;;;;;;;13.02;6.45;;;22.90;99.90;;;;;;4915903;29;20032;-77
2023/06/06 09:07:50;;;;;;;9.38;5.60;;;22.90;99.90;;;;;;4915801;29;20094;-77
2023/06/06 09:10:16;;;;;;;11.38;6.88;;;22.90;99.90;;;;;;4903543;29;20075;-77
2023/06/06 09:12:44;;;;;;;10.00;6.53;;;22.90;99.90;;;;;;4915712;29;20032;-77
2023/06/06 09:15:10;;;;;;;13.70;6.00;;;22.80;99.90;;;;;;4915883;29;20480;-76
2023/06/06 09:17:37;;;;;;;14.68;6.72;;;22.80;99.90;;;;;;4915380;29;20067;-77
2023/06/06 09:20:10;;;;;;;10.75;6.05;;;22.80;99.90;;;;;;4915822;29;20119;-77
2023/06/06 09:22:47;;;;;;;12.60;6.53;;;22.90;99.90;;;;;;4915520;29;20094;-74
2023/06/06 09:25:27;;;;;;;11.50;6.63;;;22.70;99.90;;;;;;4915742;29;20029;-75
2023/06/06 09:28:03;;;;;;;10.52;6.30;;;22.70;99.90;;;;;;4919652;29;20095;-77
2023/06/06 09:30:31;;;;;;;14.60;5.93;;;22.80;99.90;;;;;;4919491;29;20129;-73
2023/06/06 09:32:58;;;;;;;11.73;7.25;;;22.70;99.90;;;;;;4919256;29;20027;-72
2023/06/06 09:35:30;;;;;;;14.15;6.65;;;22.70;99.90;;;;;;4919371;29;20039;-76
2023/06/06 09:37:57;;;;;;;13.50;6.35;;;22.70;99.90;;;;;;4919229;29;20028;-75
2023/06/06 09:40:23;;;;;;;12.75;6.63;;;22.80;99.90;;;;;;4919080;29;20090;-75
2023/06/06 09:42:50;;;;;;;10.50;6.50;;;22.90;99.90;;;;;;4919209;29;20032;-74
2023/06/06 09:45:18;;;;;;;11.82;6.45;;;23.00;99.90;;;;;;4918735;29;20561;-78
2023/06/06 09:47:48;;;;;;;13.18;8.15;;;23.00;99.90;;;;;;4919065;29;20128;-76
2023/06/06 09:50:16;;;;;;;11.35;7.00;;;23.10;99.90;;;;;;4918679;29;20050;-75
2023/06/06 09:52:42;;;;;;;14.50;7.38;;;23.20;99.90;;;;;;4919054;29;20506;-77
2023/06/06 09:55:12;;;;;;;11.38;6.25;;;23.10;99.90;;;;;;4918700;29;20047;-77
2023/06/06 09:57:40;;;;;;;10.25;6.75;;;23.00;99.90;;;;;;4919156;29;20025;-76
2023/06/06 10:00:14;;;;;;;12.40;7.05;;;23.00;99.90;;;;;;4918917;29;20080;-76
2023/06/06 10:02:47;;;;;;;9.30;5.97;;;23.10;99.90;;;;;;4902006;29;20036;-76
2023/06/06 10:05:18;;;;;;;10.32;6.45;;;23.10;99.90;;;;;;4901884;29;20032;-76
2023/06/06 10:07:45;;;;;;;11.88;6.45;;;23.10;99.90;;;;;;4918432;29;20500;-78
2023/06/06 10:10:14;;;;;;;10.60;6.53;;;23.10;99.90;;;;;;4918777;29;20028;-78
2023/06/06 10:12:40;;;;;;;12.55;7.13;;;23.10;99.90;;;;;;4918715;29;20028;-77
2023/06/06 10:15:11;;;;;;;10.80;6.13;;;23.20;99.90;;;;;;4918791;29;20047;-76
2023/06/06 10:17:41;;;;;;;11.63;6.82;;;23.40;99.90;;;;;;4918657;29;20481;-75
2023/06/06 10:20:12;;;;;;;12.70;7.53;;;23.50;99.90;;;;;;4906600;29;20084;-75
2023/06/06 10:22:40;;;;;;;12.75;7.38;;;23.60;99.90;;;;;;4918622;29;20042;-76
2023/06/06 10:25:12;;;;;;;13.77;7.93;;;23.70;99.90;;;;;;4918692;29;20055;-77
2023/06/06 10:27:45;;;;;;;14.07;7.63;;;23.90;99.90;;;;;;4918651;29;20103;-77
2023/06/06 10:30:32;;;;;;;13.00;8.27;;;23.70;99.90;;;;;;4918436;29;20032;-75
2023/06/06 10:33:13;;;;;;;14.48;9.07;;;23.70;99.90;;;;;;4918004;29;20123;-75
2023/06/06 10:35:40;;;;;;;13.07;7.05;;;23.90;99.90;;;;;;4917746;29;20507;-76
2023/06/06 10:38:08;;;;;;;13.50;8.23;;;23.90;99.90;;;;;;4917892;29;20043;-76
2023/06/06 10:40:55;;;;;;;13.63;8.90;;;24.00;99.90;;;;;;4918160;29;20545;-76
2023/06/06 10:43:41;;;;;;;14.20;8.00;;;24.10;99.90;;;;;;4918183;29;20039;-78
2023/06/06 10:46:07;;;;;;;13.40;8.40;;;24.00;99.90;;;;;;4914303;29;20040;-76
2023/06/06 10:48:41;;;;;;;19.48;8.75;;;23.80;99.90;;;;;;4918172;29;20333;-75
2023/06/06 10:51:21;;;;;;;19.27;8.63;;;23.60;99.90;;;;;;4918118;29;20040;-75
2023/06/06 10:54:07;;;;;;;15.40;8.65;;;23.70;99.90;;;;;;4917886;29;20042;-75
2023/06/06 10:56:32;;;;;;;14.93;9.07;;;23.60;99.90;;;;;;4917726;29;20126;-75
2023/06/06 10:58:58;;;;;;;15.82;8.80;;;23.50;99.90;;;;;;4917806;29;20099;-75
2023/06/06 11:01:26;;;;;;;16.75;9.35;;;23.60;99.90;;;;;;4917655;29;20028;-76
2023/06/06 11:03:51;;;;;;;32.78;12.70;;;23.60;99.90;;;;;;4917594;29;20100;-76
2023/06/06 11:06:20;;;;;;;13.60;9.32;;;23.60;99.90;;;;;;4917773;29;20353;-77
2023/06/06 11:08:56;;;;;;;17.10;9.15;;;23.70;99.90;;;;;;4917431;29;20048;-77
2023/06/06 11:11:26;;;;;;;17.10;9.60;;;23.70;99.90;;;;;;4918338;29;20032;-74
2023/06/06 11:14:00;;;;;;;16.38;9.75;;;23.70;99.90;;;;;;4917436;29;20032;-75
2023/06/06 11:16:32;;;;;;;15.40;9.43;;;23.60;99.90;;;;;;4917629;29;20096;-76
2023/06/06 11:19:07;;;;;;;17.40;10.00;;;23.50;99.90;;;;;;4917525;29;20096;-75
2023/06/06 11:21:36;;;;;;;16.80;9.95;;;23.50;99.90;;;;;;4917174;29;20044;-78
2023/06/06 11:24:03;;;;;;;15.73;9.88;;;23.50;99.90;;;;;;4917671;29;20433;-75
2023/06/06 11:26:29;;;;;;;14.55;9.13;;;23.60;99.90;;;;;;4917328;29;20032;-73
2023/06/06 11:28:56;;;;;;;18.27;10.10;;;23.60;99.90;;;;;;4917631;29;20076;-77
2023/06/06 11:31:26;;;;;;;18.05;9.18;;;23.70;99.90;;;;;;4917249;29;20036;-78
2023/06/06 11:34:02;;;;;;;16.10;10.57;;;23.70;99.90;;;;;;4917406;29;20107;-77
2023/06/06 11:36:29;;;;;;;21.70;10.23;;;23.60;99.90;;;;;;4917222;29;20028;-74
2023/06/06 11:39:04;;;;;;;16.77;10.30;;;23.60;99.90;;;;;;4917241;29;20026;-77
2023/06/06 11:41:30;;;;;;;16.17;9.65;;;23.70;99.90;;;;;;4917181;29;20032;-75
2023/06/06 11:43:56;;;;;;;33.22;11.07;;;23.60;99.90;;;;;;4916936;29;20021;-75
2023/06/06 11:46:22;;;;;;;11.13;6.88;;;23.60;99.90;;;;;;4917302;29;20118;-77
2023/06/06 11:48:58;;;;;;;11.00;7.43;;;23.40;99.90;;;;;;4916200;29;20104;-75
2023/06/06 11:51:25;;;;;;;10.70;6.95;;;23.40;99.90;;;;;;4916372;29;20036;-77
2023/06/06 11:53:51;;;;;;;11.52;7.55;;;23.30;99.90;;;;;;4916830;29;20031;-74
2023/06/06 11:56:19;;;;;;;11.63;6.85;;;23.30;99.90;;;;;;4916664;29;20043;-75
2023/06/06 11:58:45;;;;;;;11.38;6.30;;;23.30;99.90;;;;;;4917061;29;20429;-75
2023/06/06 12:01:12;;;;;;;9.55;6.20;;;23.30;99.90;;;;;;4916723;29;20114;-73
2023/06/06 12:03:39;;;;;;;9.90;6.20;;;23.20;99.90;;;;;;4916573;29;20016;-75
2023/06/06 12:06:05;;;;;;;14.30;6.95;;;23.20;99.90;;;;;;4916443;29;20028;-75
2023/06/06 12:08:36;;;;;;;10.60;6.70;;;23.20;99.90;;;;;;4916474;29;20068;-75
2023/06/06 12:11:24;;;;;;;15.68;6.65;;;23.20;99.90;;;;;;5069196;28;20395;-76
2023/06/06 12:13:50;;;;;;;12.13;6.50;;;23.10;99.90;;;;;;5069205;28;20465;-76
2023/06/06 12:16:29;;;;;;;13.07;6.30;;;23.20;99.90;;;;;;5069327;28;20017;-76
2023/06/06 12:18:55;;;;;;;11.32;6.60;;;23.20;99.90;;;;;;5069066;28;20120;-77
2023/06/06 12:21:22;;;;;;;13.07;6.95;;;23.10;99.90;;;;;;5068700;28;20070;-75
2023/06/06 12:23:48;;;;;;;11.50;6.50;;;23.20;99.90;;;;;;5069058;28;20037;-76
2023/06/06 12:26:18;;;;;;;11.40;6.28;;;23.30;99.90;;;;;;5068936;28;20028;-76
2023/06/06 12:28:54;;;;;;;11.38;7.00;;;23.40;99.90;;;;;;5067841;28;20036;-76
2023/06/06 12:31:21;;;;;;;9.48;5.93;;;23.40;99.90;;;;;;5043924;28;20043;-76
2023/06/06 12:33:47;;;;;;;14.18;5.47;;;23.40;99.90;;;;;;5068070;28;20063;-76
2023/06/06 12:36:19;;;;;;;9.38;6.13;;;23.50;99.90;;;;;;5068920;28;20052;-75
2023/06/06 12:39:09;;;;;;;13.73;5.68;;;23.50;99.90;;;;;;5068694;28;20028;-76
2023/06/06 12:41:42;;;;;;;9.40;5.68;;;23.50;99.90;;;;;;5068715;28;20063;-76